Terminal Aerodrome Forecast
Issued by NWS

Home | Current Version | Previous Version | Text Only | Print | Product List | Glossary Off
Versions: 1 2 3 4 5 6 7 8 9 10 11 12 13 14 15 16 17 18 19 20 21

000
FTUS43 KPAH 300534 AAA
TAFCGI
TAF AMD
KCGI 300534Z 3006/3106 14009KT P6SM VCTS SCT035CB BKN070
     FM300900 16010KT 3SM TSRA OVC030CB
     FM301200 17009KT 6SM -SHRA BR BKN025
     FM301500 19013G23KT P6SM SCT025 BKN250
     FM301800 20015G25KT 3SM TSRA OVC025CB
     FM302200 21012G20KT 6SM -SHRA BKN025
     FM310400 23010KT P6SM VCSH BKN015=

USA.gov is the U.S. government's official web portal to all federal, state and local government web resources and services.